Aeroporto :
LOGIN :

Iscrizione | Disclaimer

   EN    FR    IT 

 










Sommario :    VFR   VFR Marginale   IFR   IFR Intensivo   IFR Molto Intensivo
Visibilità : 
Base nubi : 
>= 8 km
>= 3000ft
5 / 8 km
1000 / 3000 ft
1500m / 5 km
500 / 1000 ft
800 / 1500m
200 / 500 ft
< 800m
< 200 ft
Simboli :   Temporali  Nebbia  Neve Forte  Precipitazioni Forti  Vento > 20 kt
SIGMETs :   Varie  Temporali  Ghiacco  Turbolenza  Onda orograficha  Ceneri Vulcaniche






- Altitudine del aeroporto : 870 ft
- Codice IATA : ETZ


LFJL - Metz Nancy Lorraine

ULTIMO METAR :
  • 211500Z AUTO 04015KT 9999 FEW041/// BKN064/// ///TCU 09/01 Q1020 TEMPO 02015G30KT 4000 SHRA SCT020CB

METARs OBSOLETI :
  • 211430Z AUTO 02016KT 9999 SCT028/// SCT037/// BKN046/// //////TCU 06/01 Q1020 TEMPO 02015G30KT 4000 SHRA SCT020CB
  • 211400Z AUTO 04015KT 9999 FEW028/// SCT044/// ///TCU 08/02 Q1020 TEMPO 02015G30KT 4000 SHRA SCT020CB
  • 211330Z AUTO 01010KT 340V060 9999 FEW027/// BKN035/// BKN041/// //////TCU 07/01 Q1020 TEMPO 02015G30KT 4000 SHRA SCT020CB
  • 211300Z AUTO 03006KT 9999 FEW025/// SCT056/// BKN066/// ///CB 07/03 Q1020 TEMPO 02015G30KT 4000 SHRA
  • 211230Z AUTO 03016KT 9999 -RA SCT026/// BKN041/// BKN060/// //////TCU 04/01 Q1020 TEMPO 02015G30KT 4000 SHRA SCT020CB
  • 211200Z AUTO 02011KT 340V060 9999 FEW013/// BKN056/// BKN076/// //////CB 07/00 Q1020 TEMPO 02015G30KT 4000 SHRA
  • 211130Z AUTO 35015KT 9999 FEW042/// SCT062/// BKN080/// //////TCU 09/M00 Q1019 TEMPO 02015G25KT 4000 SHRA SCT020CB
  • 211100Z AUTO 35012KT 320V020 9999 BKN040/// BKN056/// BKN070/// ///TCU 09/01 Q1019 TEMPO 02015G25KT 4000 SHRA SCT020CB
  • 211030Z AUTO 34011KT 9999 FEW040/// BKN080/// //////TCU 07/M01 Q1020 TEMPO 02015G25KT 4000 SHRA SCT020CB

TAF TAF LFJL
Valido dal 21 a 12 ore il 22 a 12 ore UTC


211100Z 2112/2212 02012KT 9999 FEW040 BKN050
TEMPO 2112/2120 -SHRA FEW025CB
PROB40
TEMPO 2112/2119 02015G30KT 4000 SHRA SCT020CB



MetMap, La meteo Aeronautica in un colpo d'occhio ! - Copyright ORBIFLY Dicembre 2007 - Disclaimer

ORBIFLY MET'MAP TEAM :

Programmazione e sviluppo : Alexandra Zaïnal
Concezione : Baudouin d'Aumeries
Supporto tecnico e logistico : Manuel Goepfert
Aiuto : Marc-Olivier Méhu
Aiuto per la traduzione : Arnaldo La Scala




FONTI E CREDITI :

   NOAA